createdAt,value
2019-03-08T00:02:43.115Z,7.62
2019-03-08T00:07:43.121Z,7.58
2019-03-08T00:12:43.150Z,7.51
2019-03-08T00:17:43.228Z,7.52
2019-03-08T00:22:43.054Z,7.56
2019-03-08T00:27:43.117Z,7.53
2019-03-08T00:32:43.124Z,7.55
2019-03-08T00:37:43.213Z,7.83
2019-03-08T00:42:43.191Z,7.59
2019-03-08T00:47:43.644Z,7.56
2019-03-08T00:52:43.050Z,7.63
2019-03-08T00:57:43.134Z,7.65
2019-03-08T01:02:43.136Z,7.49
2019-03-08T01:07:43.162Z,7.57
2019-03-08T01:12:43.191Z,7.64
2019-03-08T01:17:43.057Z,7.46
2019-03-08T01:22:43.060Z,7.36
2019-03-08T01:27:43.128Z,7.15
2019-03-08T01:32:43.155Z,7.08
2019-03-08T01:37:43.194Z,6.93
2019-03-08T01:42:43.424Z,6.91
2019-03-08T01:47:43.054Z,6.93
2019-03-08T01:52:43.090Z,6.92
2019-03-08T01:57:43.535Z,6.90
2019-03-08T02:02:43.167Z,6.72
2019-03-08T02:07:43.220Z,6.76
2019-03-08T02:12:43.029Z,6.69
2019-03-08T02:17:43.093Z,6.62
2019-03-08T02:22:43.113Z,6.40
2019-03-08T02:27:43.161Z,6.44
2019-03-08T02:32:43.194Z,6.14
2019-03-08T02:37:43.020Z,5.75
2019-03-08T02:42:43.064Z,5.66
2019-03-08T02:47:43.095Z,5.35
2019-03-08T02:52:43.134Z,5.33
2019-03-08T02:57:43.167Z,5.21
2019-03-08T03:02:43.194Z,5.10
2019-03-08T03:07:43.052Z,4.97
2019-03-08T03:12:43.059Z,4.84
2019-03-08T03:17:43.118Z,4.78
2019-03-08T03:22:43.164Z,4.64
2019-03-08T03:27:43.205Z,4.66
2019-03-08T03:32:43.029Z,4.44
2019-03-08T03:37:43.080Z,4.31
2019-03-08T03:42:43.096Z,4.29
2019-03-08T03:47:43.145Z,4.14
2019-03-08T03:52:43.164Z,4.12
2019-03-08T03:57:43.209Z,4.18
2019-03-08T04:02:43.021Z,4.22
2019-03-08T04:07:43.053Z,4.42
2019-03-08T04:12:43.103Z,4.53
2019-03-08T04:17:43.149Z,4.57
2019-03-08T04:22:43.174Z,4.84
2019-03-08T04:27:43.013Z,5.01
2019-03-08T04:32:43.043Z,4.92
2019-03-08T04:37:43.086Z,4.94
2019-03-08T04:42:43.116Z,5.09
2019-03-08T04:47:43.151Z,5.07
2019-03-08T04:52:43.174Z,5.13
2019-03-08T04:57:43.012Z,5.16
2019-03-08T05:02:43.072Z,5.32
2019-03-08T05:07:43.103Z,5.28
2019-03-08T05:12:43.126Z,5.09
2019-03-08T05:17:43.173Z,5.19
2019-03-08T05:22:43.120Z,5.28
2019-03-08T05:27:43.023Z,5.18
2019-03-08T05:32:43.089Z,5.12
2019-03-08T05:37:43.126Z,5.18
2019-03-08T05:42:43.168Z,5.22
2019-03-08T05:47:43.172Z,5.40
2019-03-08T05:52:43.002Z,5.37
2019-03-08T05:57:43.097Z,5.31
2019-03-08T06:02:43.140Z,5.24
2019-03-08T06:07:43.118Z,5.48
2019-03-08T06:12:43.160Z,5.47
2019-03-08T06:17:43.016Z,5.75
2019-03-08T06:22:43.032Z,5.73
2019-03-08T06:27:43.092Z,5.71
2019-03-08T06:32:43.098Z,5.89
2019-03-08T06:37:43.140Z,6.13
2019-03-08T06:42:43.173Z,6.27
2019-03-08T06:47:42.993Z,6.50
2019-03-08T06:52:43.038Z,6.77
2019-03-08T06:57:43.105Z,7.17
2019-03-08T07:02:43.107Z,7.55
2019-03-08T07:07:43.146Z,7.56
2019-03-08T07:12:42.978Z,8.47
2019-03-08T07:17:43.011Z,8.02
2019-03-08T07:22:43.085Z,8.83
2019-03-08T07:27:43.080Z,8.22
2019-03-08T07:32:43.120Z,7.94
2019-03-08T07:37:43.172Z,7.79
2019-03-08T07:42:44.982Z,7.60
2019-03-08T07:47:43.005Z,7.56
2019-03-08T07:52:43.084Z,7.60
2019-03-08T07:57:43.098Z,7.61
2019-03-08T08:02:43.194Z,7.75
2019-03-08T08:07:43.177Z,8.06
2019-03-08T08:12:43.058Z,8.22
2019-03-08T08:17:43.059Z,8.37
2019-03-08T08:22:43.092Z,8.08
2019-03-08T08:27:43.361Z,8.35
2019-03-08T08:32:43.213Z,9.10
2019-03-08T08:37:42.966Z,8.58
2019-03-08T08:42:43.022Z,8.74
2019-03-08T08:47:43.073Z,9.73
2019-03-08T08:52:43.088Z,10.11
2019-03-08T08:57:43.148Z,9.83
2019-03-08T09:02:43.180Z,9.78
2019-03-08T09:07:43.006Z,12.32
2019-03-08T09:12:43.065Z,11.04
2019-03-08T09:17:43.098Z,10.74
2019-03-08T09:22:43.123Z,11.68
2019-03-08T09:27:43.125Z,13.13
2019-03-08T09:32:42.997Z,12.30
2019-03-08T09:37:43.036Z,11.59
2019-03-08T09:42:43.025Z,11.25
2019-03-08T09:47:43.110Z,10.91
2019-03-08T09:52:43.128Z,11.01
2019-03-08T09:57:43.172Z,11.40
2019-03-08T10:02:43.007Z,13.01
2019-03-08T10:07:43.026Z,13.43
2019-03-08T10:12:43.087Z,13.04
2019-03-08T10:17:43.107Z,13.24
2019-03-08T10:22:43.152Z,12.57
2019-03-08T10:27:43.003Z,11.13
2019-03-08T10:32:43.012Z,11.33
2019-03-08T10:37:43.058Z,11.46
2019-03-08T10:42:43.104Z,11.20
2019-03-08T10:47:43.123Z,10.79
2019-03-08T10:52:43.178Z,10.71
2019-03-08T10:57:42.990Z,10.58
2019-03-08T11:02:43.041Z,10.73
2019-03-08T11:07:43.080Z,10.71
2019-03-08T11:12:43.099Z,10.70
2019-03-08T11:17:50.473Z,10.84
2019-03-08T11:22:42.968Z,10.78
2019-03-08T11:27:42.986Z,10.68
2019-03-08T11:32:43.053Z,10.40
2019-03-08T11:37:43.084Z,10.26
2019-03-08T11:42:43.133Z,10.10
2019-03-08T11:47:43.155Z,9.89
2019-03-08T11:52:42.988Z,9.77
2019-03-08T11:57:43.053Z,9.82
2019-03-08T12:02:43.061Z,10.03
2019-03-08T12:07:43.111Z,10.05
2019-03-08T12:12:43.103Z,10.08
2019-03-08T12:17:42.955Z,10.14
2019-03-08T12:22:43.003Z,10.24
2019-03-08T12:27:43.002Z,10.31
2019-03-08T12:32:43.083Z,10.45
2019-03-08T12:37:43.111Z,11.10
2019-03-08T12:42:43.133Z,12.34
2019-03-08T12:47:42.983Z,12.80
2019-03-08T12:52:43.016Z,12.66
2019-03-08T12:57:43.106Z,12.09
2019-03-08T13:02:43.103Z,11.87
2019-03-08T13:07:43.132Z,11.49
2019-03-08T13:12:42.940Z,11.06
2019-03-08T13:17:43.007Z,10.79
2019-03-08T13:22:43.022Z,10.65
2019-03-08T13:27:43.065Z,10.48
2019-03-08T13:32:43.130Z,10.38
2019-03-08T13:37:43.154Z,10.36
2019-03-08T13:42:43.005Z,10.35
2019-03-08T13:47:43.041Z,10.36
2019-03-08T13:52:43.055Z,10.41
2019-03-08T13:57:43.070Z,10.49
2019-03-08T14:02:43.135Z,10.59
2019-03-08T14:07:43.189Z,10.65
2019-03-08T14:12:42.987Z,10.69
2019-03-08T14:17:43.033Z,10.69
2019-03-08T14:22:43.124Z,10.70
2019-03-08T14:27:43.090Z,10.70
2019-03-08T14:32:43.145Z,10.69
2019-03-08T14:37:42.976Z,10.62
2019-03-08T14:42:43.007Z,10.54
2019-03-08T14:47:43.049Z,10.47
2019-03-08T14:52:43.079Z,10.38
2019-03-08T14:57:43.096Z,10.29
2019-03-08T15:02:47.147Z,10.15
2019-03-08T15:07:43.017Z,10.10
2019-03-08T15:12:49.062Z,10.05
2019-03-08T15:17:43.063Z,10.00
2019-03-08T15:22:43.134Z,10.04
2019-03-08T15:27:43.144Z,9.99
2019-03-08T15:32:42.971Z,9.88
2019-03-08T15:37:44.505Z,9.82
2019-03-08T15:42:43.093Z,9.71
2019-03-08T15:47:43.109Z,9.49
2019-03-08T15:52:43.140Z,9.18
2019-03-08T15:57:43.150Z,8.94
2019-03-08T16:02:42.994Z,8.52
2019-03-08T16:07:43.014Z,8.17
2019-03-08T16:12:43.112Z,8.09
2019-03-08T16:17:43.099Z,7.90
2019-03-08T16:22:43.129Z,7.73
2019-03-08T16:27:42.948Z,7.75
2019-03-08T16:32:43.010Z,7.58
2019-03-08T16:37:43.024Z,7.62
2019-03-08T16:42:43.073Z,7.55
2019-03-08T16:47:43.796Z,7.41
2019-03-08T16:52:43.138Z,7.34
2019-03-08T16:57:42.968Z,7.36
2019-03-08T17:02:43.013Z,7.27
2019-03-08T17:07:43.064Z,7.14
2019-03-08T17:12:43.081Z,7.03
2019-03-08T17:17:43.156Z,7.21
2019-03-08T17:22:42.949Z,7.31
2019-03-08T17:38:22.383Z,7.34
2019-03-08T17:43:22.222Z,6.94
2019-03-08T17:48:22.255Z,6.89
2019-03-08T17:53:22.491Z,6.76
2019-03-08T17:58:22.330Z,6.70
2019-03-08T18:03:23.006Z,6.66
2019-03-08T18:08:22.185Z,6.57
2019-03-08T18:13:22.252Z,6.52
2019-03-08T18:18:22.310Z,6.54
2019-03-08T18:23:22.290Z,6.54
2019-03-08T18:28:22.580Z,6.54
2019-03-08T18:33:22.415Z,6.54
2019-03-08T18:38:22.210Z,6.54
2019-03-08T18:43:22.259Z,6.54
2019-03-08T18:48:22.283Z,6.54
2019-03-08T18:53:22.336Z,6.54
2019-03-08T18:58:22.379Z,6.54
2019-03-08T19:03:22.424Z,6.54
2019-03-08T19:08:23.100Z,6.54
2019-03-08T19:13:22.285Z,6.54
2019-03-08T19:18:22.288Z,6.54
2019-03-08T19:23:22.352Z,6.54
2019-03-08T19:28:22.399Z,6.54
2019-03-08T19:33:22.414Z,6.54
2019-03-08T19:38:22.458Z,6.54
2019-03-08T19:43:22.289Z,6.54
2019-03-08T19:48:22.523Z,6.54
2019-03-08T19:53:22.374Z,6.54
2019-03-08T19:58:22.403Z,6.54
2019-03-08T20:03:22.419Z,6.54
2019-03-08T20:08:22.498Z,6.54
2019-03-08T20:13:22.295Z,6.54
2019-03-08T20:18:22.313Z,6.54
2019-03-08T20:23:22.387Z,6.54
2019-03-08T20:28:22.433Z,6.54
2019-03-08T20:33:22.475Z,6.54
2019-03-08T20:38:22.482Z,6.54
2019-03-08T20:43:22.324Z,6.54
2019-03-08T20:48:22.345Z,6.54
2019-03-08T20:53:22.402Z,6.54
2019-03-08T20:58:22.412Z,6.54
2019-03-08T21:03:22.489Z,6.54
2019-03-08T21:08:22.505Z,6.54
2019-03-08T21:13:22.338Z,6.54
2019-03-08T21:18:22.363Z,6.54
2019-03-08T21:23:22.410Z,6.54
2019-03-08T21:28:22.433Z,6.54
2019-03-08T21:33:22.495Z,6.54
2019-03-08T21:38:22.511Z,6.54
2019-03-08T21:43:22.357Z,6.54
2019-03-08T21:48:22.395Z,6.54
2019-03-08T21:53:22.615Z,6.54
2019-03-08T21:58:22.460Z,6.54
2019-03-08T22:03:22.482Z,6.54
2019-03-08T22:08:22.527Z,6.54
2019-03-08T22:13:22.377Z,6.54
2019-03-08T22:18:22.398Z,6.54
2019-03-08T22:23:22.450Z,6.54
2019-03-08T22:28:22.507Z,6.54
2019-03-08T22:33:22.503Z,6.54
2019-03-08T22:38:22.539Z,6.54
2019-03-08T22:43:22.354Z,6.54
2019-03-08T22:48:22.422Z,6.54
2019-03-08T22:53:22.441Z,6.54
2019-03-08T22:58:22.458Z,6.54
2019-03-08T23:03:22.513Z,6.54
2019-03-08T23:08:22.551Z,6.54
2019-03-08T23:13:22.612Z,6.54
2019-03-08T23:18:22.422Z,6.54
2019-03-08T23:23:22.439Z,6.54
2019-03-08T23:28:22.484Z,6.54
2019-03-08T23:33:22.521Z,6.54
2019-03-08T23:38:22.568Z,6.54
2019-03-08T23:43:22.631Z,6.54
2019-03-08T23:48:22.454Z,6.54
2019-03-08T23:53:22.471Z,6.54
2019-03-08T23:58:22.503Z,6.54
